createdAt,value
2022-10-11T00:00:21.289Z,2.78
2022-10-11T00:02:47.780Z,2.50
2022-10-11T00:05:16.455Z,2.60
2022-10-11T00:07:43.377Z,2.47
2022-10-11T00:10:10.693Z,2.20
2022-10-11T00:12:37.410Z,2.90
2022-10-11T00:15:05.634Z,3.47
2022-10-11T00:17:32.706Z,3.75
2022-10-11T00:20:01.582Z,3.13
2022-10-11T00:22:31.884Z,3.25
2022-10-11T00:24:59.237Z,3.63
2022-10-11T00:27:25.831Z,3.47
2022-10-11T00:29:52.388Z,4.47
2022-10-11T00:32:18.881Z,4.10
2022-10-11T00:34:47.149Z,5.25
2022-10-11T00:37:13.825Z,3.83
2022-10-11T00:39:40.339Z,3.95
2022-10-11T00:42:12.454Z,4.07
2022-10-11T00:44:43.467Z,4.47
2022-10-11T00:47:15.328Z,3.70
2022-10-11T00:49:43.253Z,4.43
2022-10-11T00:52:32.279Z,4.05
2022-10-11T00:55:05.290Z,4.32
2022-10-11T00:57:36.616Z,4.50
2022-10-11T01:00:07.604Z,4.05
2022-10-11T01:02:34.499Z,3.60
2022-10-11T01:05:27.623Z,4.15
2022-10-11T01:07:52.445Z,4.07
2022-10-11T01:10:21.135Z,3.90
2022-10-11T01:12:56.322Z,4.38
2022-10-11T01:15:33.581Z,3.50
2022-10-11T01:18:11.157Z,3.38
2022-10-11T01:20:50.096Z,3.40
2022-10-11T01:23:33.653Z,3.03
2022-10-11T01:26:16.880Z,3.20
2022-10-11T01:28:52.255Z,2.90
2022-10-11T01:31:40.195Z,2.63
2022-10-11T01:34:13.941Z,2.60
2022-10-11T01:36:51.332Z,3.05
2022-10-11T01:39:43.473Z,3.05
2022-10-11T01:42:12.612Z,3.03
2022-10-11T01:44:44.461Z,2.53
2022-10-11T01:47:10.974Z,3.03
2022-10-11T01:49:39.245Z,2.92
2022-10-11T01:52:07.676Z,3.20
2022-10-11T01:55:09.708Z,2.83
2022-10-11T01:58:08.624Z,3.35
2022-10-11T02:00:51.785Z,2.65
2022-10-11T02:03:41.249Z,2.63
2022-10-11T02:06:48.592Z,2.38
2022-10-11T02:09:20.075Z,2.08
2022-10-11T02:11:46.773Z,2.22
2022-10-11T02:14:18.493Z,2.20
2022-10-11T02:16:50.986Z,2.63
2022-10-11T02:19:23.665Z,2.85
2022-10-11T02:21:54.701Z,3.30
2022-10-11T02:24:38.565Z,3.25
2022-10-11T02:27:06.446Z,4.03
2022-10-11T02:29:36.072Z,4.40
2022-10-11T02:32:04.691Z,5.20
2022-10-11T02:34:36.010Z,4.07
2022-10-11T02:37:05.563Z,4.35
2022-10-11T02:39:40.219Z,4.38
2022-10-11T02:42:14.972Z,4.60
2022-10-11T02:44:49.506Z,4.05
2022-10-11T02:47:18.363Z,3.40
2022-10-11T02:49:45.511Z,3.88
2022-10-11T02:52:12.176Z,3.30
2022-10-11T02:54:38.703Z,2.95
2022-10-11T02:57:05.250Z,2.97
2022-10-11T02:59:37.917Z,2.30
2022-10-11T03:02:04.517Z,2.80
2022-10-11T03:04:31.074Z,2.65
2022-10-11T03:06:57.789Z,2.50
2022-10-11T03:09:24.309Z,2.75
2022-10-11T03:11:53.183Z,2.67
2022-10-11T03:14:19.814Z,3.20
2022-10-11T03:16:46.302Z,3.00
2022-10-11T03:19:16.927Z,3.65
2022-10-11T03:21:52.395Z,3.03
2022-10-11T03:24:18.895Z,2.97
2022-10-11T03:26:45.400Z,3.05
2022-10-11T03:29:21.594Z,2.65
2022-10-11T03:31:51.547Z,3.28
2022-10-11T03:34:18.037Z,3.08
2022-10-11T03:36:44.641Z,3.35
2022-10-11T03:39:11.145Z,3.30
2022-10-11T03:41:37.953Z,3.40
2022-10-11T03:44:04.729Z,2.78
2022-10-11T03:46:31.552Z,2.95
2022-10-11T03:48:58.353Z,2.78
2022-10-11T03:51:31.214Z,2.88
2022-10-11T03:53:58.056Z,2.80
2022-10-11T03:56:24.811Z,2.70
2022-10-11T03:58:51.561Z,2.50
2022-10-11T04:01:18.102Z,2.50
2022-10-11T04:03:46.953Z,2.30
2022-10-11T04:06:15.179Z,2.28
2022-10-11T04:08:41.697Z,2.42
2022-10-11T04:11:08.279Z,2.50
2022-10-11T04:13:36.534Z,2.97
2022-10-11T04:16:03.822Z,2.85
2022-10-11T04:18:30.583Z,2.65
2022-10-11T04:20:57.052Z,2.60
2022-10-11T04:23:26.164Z,2.47
2022-10-11T04:25:55.992Z,2.70
2022-10-11T04:28:27.342Z,2.80
2022-10-11T04:30:53.906Z,2.70
2022-10-11T04:33:20.634Z,2.35
2022-10-11T04:35:47.264Z,2.20
2022-10-11T04:38:14.079Z,2.67
2022-10-11T04:40:40.677Z,3.00
2022-10-11T04:43:09.422Z,2.78
2022-10-11T04:45:35.906Z,3.20
2022-10-11T04:48:04.338Z,3.50
2022-10-11T04:50:32.759Z,3.92
2022-10-11T04:52:59.299Z,3.88
2022-10-11T04:55:25.864Z,4.60
2022-10-11T04:57:54.421Z,4.35
2022-10-11T05:00:21.893Z,5.03
2022-10-11T05:02:48.795Z,5.55
2022-10-11T05:05:17.807Z,4.72
2022-10-11T05:07:44.481Z,4.28
2022-10-11T05:10:14.986Z,3.72
2022-10-11T05:12:41.591Z,3.97
2022-10-11T05:15:08.770Z,3.08
2022-10-11T05:17:35.583Z,3.53
2022-10-11T05:20:06.636Z,3.20
2022-10-11T05:22:33.126Z,3.65
2022-10-11T05:24:59.620Z,3.97
2022-10-11T05:27:28.370Z,3.10
2022-10-11T05:29:54.882Z,3.58
2022-10-11T05:32:27.750Z,3.78
2022-10-11T05:34:56.363Z,3.97
2022-10-11T05:37:23.141Z,4.40
2022-10-11T05:39:49.637Z,4.20
2022-10-11T05:42:25.277Z,4.72
2022-10-11T05:44:56.737Z,4.68
2022-10-11T05:47:23.219Z,5.55
2022-10-11T05:49:51.466Z,5.32
2022-10-11T05:52:21.678Z,4.80
2022-10-11T05:54:48.755Z,4.63
2022-10-11T05:57:17.145Z,4.75
2022-10-11T05:59:43.767Z,4.80
2022-10-11T06:02:15.545Z,5.22
2022-10-11T06:04:42.102Z,4.75
2022-10-11T06:07:08.751Z,5.10
2022-10-11T06:09:35.317Z,5.10
2022-10-11T06:12:10.923Z,5.28
2022-10-11T06:14:38.078Z,5.07
2022-10-11T06:17:04.692Z,4.55
2022-10-11T06:19:31.477Z,5.60
2022-10-11T06:21:57.998Z,4.72
2022-10-11T06:24:24.550Z,4.30
2022-10-11T06:26:53.383Z,4.00
2022-10-11T06:29:20.168Z,4.18
2022-10-11T06:31:48.170Z,4.28
2022-10-11T06:34:17.708Z,3.60
2022-10-11T06:36:44.228Z,3.65
2022-10-11T06:39:10.716Z,4.15
2022-10-11T06:41:43.790Z,3.67
2022-10-11T06:44:14.141Z,3.65
2022-10-11T06:46:41.408Z,4.03
2022-10-11T06:49:10.413Z,4.50
2022-10-11T06:51:36.894Z,4.32
2022-10-11T06:54:03.798Z,4.70
2022-10-11T06:56:36.653Z,4.25
2022-10-11T06:59:05.219Z,4.88
2022-10-11T07:01:32.778Z,4.80
2022-10-11T07:04:04.892Z,4.97
2022-10-11T07:06:31.727Z,5.10
2022-10-11T07:09:00.453Z,5.25
2022-10-11T07:11:28.343Z,5.63
2022-10-11T07:13:57.355Z,6.95
2022-10-11T07:16:24.617Z,6.28
2022-10-11T07:19:00.805Z,6.80
2022-10-11T07:21:32.399Z,7.35
2022-10-11T07:24:05.539Z,8.35
2022-10-11T07:26:38.302Z,9.60
2022-10-11T07:29:14.801Z,8.10
2022-10-11T07:34:12.419Z,7.28
2022-10-11T07:36:44.658Z,7.80
2022-10-11T07:39:11.397Z,7.90
2022-10-11T07:41:44.642Z,7.85
2022-10-11T07:44:16.850Z,8.70
2022-10-11T07:46:43.396Z,7.53
2022-10-11T07:49:09.867Z,7.80
2022-10-11T07:51:36.524Z,7.95
2022-10-11T07:54:07.053Z,8.20
2022-10-11T07:56:34.001Z,8.20
2022-10-11T07:59:03.697Z,8.02
2022-10-11T08:01:32.949Z,8.18
2022-10-11T08:03:59.985Z,7.90
2022-10-11T08:06:30.727Z,8.13
2022-10-11T08:08:58.832Z,7.50
2022-10-11T08:11:30.645Z,6.25
2022-10-11T08:14:04.669Z,7.85
2022-10-11T08:16:31.285Z,7.03
2022-10-11T08:18:58.123Z,7.07
2022-10-11T08:21:26.804Z,7.13
2022-10-11T08:23:53.494Z,7.07
2022-10-11T08:26:19.967Z,7.07
2022-10-11T08:28:46.576Z,6.82
2022-10-11T08:31:18.129Z,6.47
2022-10-11T08:33:44.813Z,7.30
2022-10-11T08:36:14.386Z,6.75
2022-10-11T08:38:41.578Z,7.35
2022-10-11T08:41:16.055Z,6.88
2022-10-11T08:43:56.495Z,6.28
2022-10-11T08:46:28.627Z,6.55
2022-10-11T08:48:58.766Z,6.85
2022-10-11T08:51:32.244Z,6.25
2022-10-11T08:54:07.536Z,6.63
2022-10-11T08:59:31.208Z,6.55
2022-10-11T09:02:14.359Z,5.88
2022-10-11T09:04:42.781Z,6.57
2022-10-11T09:07:23.032Z,6.35
2022-10-11T09:09:57.025Z,6.50
2022-10-11T09:12:49.804Z,6.65
2022-10-11T09:15:26.823Z,6.10
2022-10-11T09:18:15.318Z,5.75
2022-10-11T09:21:00.053Z,5.07
2022-10-11T09:23:47.925Z,5.72
2022-10-11T09:26:31.659Z,6.10
2022-10-11T09:29:08.433Z,6.38
2022-10-11T09:31:35.021Z,5.15
2022-10-11T09:34:11.941Z,5.28
2022-10-11T09:36:44.497Z,4.78
2022-10-11T09:39:25.202Z,5.45
2022-10-11T09:42:09.149Z,5.70
2022-10-11T09:45:04.474Z,4.65
2022-10-11T09:47:34.321Z,5.05
2022-10-11T09:50:03.539Z,4.82
2022-10-11T09:52:30.631Z,5.43
2022-10-11T09:55:03.962Z,5.38
2022-10-11T09:57:35.276Z,4.65
2022-10-11T10:00:21.742Z,5.15
2022-10-11T10:02:52.565Z,4.70
2022-10-11T10:05:23.487Z,4.60
2022-10-11T10:08:09.158Z,4.38
2022-10-11T10:10:41.962Z,4.20
2022-10-11T10:13:42.519Z,4.30
2022-10-11T10:16:37.379Z,4.30
2022-10-11T10:19:18.600Z,4.03
2022-10-11T10:21:48.974Z,3.30
2022-10-11T10:24:35.506Z,3.38
2022-10-11T10:27:14.321Z,3.58
2022-10-11T10:29:41.897Z,3.55
2022-10-11T10:32:23.632Z,3.13
2022-10-11T10:35:08.498Z,3.30
2022-10-11T10:37:50.259Z,3.10
2022-10-11T10:40:35.758Z,3.45
2022-10-11T10:43:02.389Z,3.10
2022-10-11T10:45:41.778Z,2.80
2022-10-11T10:49:18.832Z,3.20
2022-10-11T10:51:39.612Z,2.90
2022-10-11T10:54:33.766Z,2.80
2022-10-11T10:57:04.518Z,3.05
2022-10-11T11:00:03.551Z,2.88
2022-10-11T11:03:02.516Z,2.88
2022-10-11T11:05:58.489Z,3.13
2022-10-11T11:09:05.457Z,2.25
2022-10-11T11:11:54.044Z,2.90
2022-10-11T11:14:41.717Z,2.28
2022-10-11T11:17:18.190Z,2.97
2022-10-11T11:20:13.590Z,2.58
2022-10-11T11:22:47.754Z,2.60
2022-10-11T11:25:40.266Z,2.53
2022-10-11T11:28:33.930Z,2.90
2022-10-11T11:31:23.432Z,2.83
2022-10-11T11:34:30.681Z,2.58
2022-10-11T11:37:10.835Z,2.50
2022-10-11T11:39:53.152Z,3.08
2022-10-11T11:42:22.441Z,2.47
2022-10-11T11:44:52.110Z,2.63
2022-10-11T11:47:29.454Z,2.15
2022-10-11T11:50:02.220Z,1.95
2022-10-11T11:52:46.576Z,3.00
2022-10-11T11:55:37.127Z,3.22
2022-10-11T11:58:31.656Z,3.70
2022-10-11T12:01:18.242Z,3.55
2022-10-11T12:03:49.800Z,3.42
2022-10-11T12:06:17.929Z,2.90
2022-10-11T12:08:48.563Z,3.30
2022-10-11T12:11:44.601Z,3.28
2022-10-11T12:14:29.811Z,3.75
2022-10-11T12:17:10.545Z,3.97
2022-10-11T12:19:38.752Z,3.58
2022-10-11T12:22:26.891Z,3.47
2022-10-11T12:24:58.515Z,3.42
2022-10-11T12:27:45.682Z,3.47
2022-10-11T12:30:50.920Z,3.42
2022-10-11T12:33:31.129Z,3.75
2022-10-11T12:36:23.209Z,3.30
2022-10-11T12:39:24.929Z,3.72
2022-10-11T12:42:07.478Z,3.33
2022-10-11T12:44:44.315Z,3.25
2022-10-11T12:47:41.643Z,3.30
2022-10-11T12:50:32.511Z,3.97
2022-10-11T12:53:31.500Z,3.35
2022-10-11T12:56:14.441Z,3.65
2022-10-11T12:58:46.670Z,4.18
2022-10-11T13:01:22.783Z,4.05
2022-10-11T13:04:23.090Z,3.80
2022-10-11T13:07:06.440Z,4.07
2022-10-11T13:09:46.616Z,4.18
2022-10-11T13:12:19.732Z,3.80
2022-10-11T13:14:54.367Z,5.07
2022-10-11T13:17:26.135Z,5.28
2022-10-11T13:20:20.734Z,5.63
2022-10-11T13:22:53.005Z,6.07
2022-10-11T13:25:28.405Z,5.60
2022-10-11T13:28:01.524Z,6.25
2022-10-11T13:30:42.364Z,6.65
2022-10-11T13:33:26.623Z,5.10
2022-10-11T13:35:53.635Z,5.78
2022-10-11T13:38:25.825Z,5.10
2022-10-11T13:40:52.790Z,5.57
2022-10-11T13:43:22.940Z,5.35
2022-10-11T13:45:49.500Z,5.80
2022-10-11T13:48:16.908Z,5.47
2022-10-11T13:50:51.175Z,6.63
2022-10-11T13:53:17.632Z,6.63
2022-10-11T13:55:59.245Z,6.30
2022-10-11T13:58:33.653Z,8.63
2022-10-11T14:01:04.673Z,7.68
2022-10-11T14:03:58.811Z,7.15
2022-10-11T14:07:01.107Z,8.77
2022-10-11T14:09:33.143Z,7.28
2022-10-11T14:12:30.707Z,8.07
2022-10-11T14:14:58.815Z,7.72
2022-10-11T14:17:39.998Z,9.32
2022-10-11T14:20:23.143Z,8.43
2022-10-11T14:22:53.761Z,7.40
2022-10-11T14:25:25.291Z,8.38
2022-10-11T14:27:52.031Z,8.30
2022-10-11T14:30:26.532Z,7.93
2022-10-11T14:32:56.224Z,7.50
2022-10-11T14:35:26.736Z,8.02
2022-10-11T14:37:53.987Z,8.10
2022-10-11T14:40:24.082Z,8.63
2022-10-11T14:42:53.323Z,8.15
2022-10-11T14:45:21.302Z,7.47
2022-10-11T14:47:50.360Z,7.47
2022-10-11T14:50:27.637Z,7.97
2022-10-11T14:52:56.674Z,8.15
2022-10-11T14:55:23.749Z,7.47
2022-10-11T14:57:50.338Z,7.68
2022-10-11T15:00:29.715Z,7.53
2022-10-11T15:02:57.054Z,7.50
2022-10-11T15:05:29.823Z,7.10
2022-10-11T15:10:30.122Z,6.85
2022-10-11T15:12:58.755Z,6.85
2022-10-11T15:15:27.163Z,8.02
2022-10-11T15:17:56.301Z,7.30
2022-10-11T15:20:41.192Z,6.90
2022-10-11T15:23:09.931Z,7.95
2022-10-11T15:25:37.861Z,7.82
2022-10-11T15:28:09.805Z,8.25
2022-10-11T15:30:41.454Z,9.20
2022-10-11T15:33:08.729Z,7.60
2022-10-11T15:35:37.105Z,8.05
2022-10-11T15:38:03.983Z,7.72
2022-10-11T15:40:35.801Z,8.52
2022-10-11T15:43:05.355Z,7.97
2022-10-11T15:45:31.952Z,8.80
2022-10-11T15:47:59.201Z,10.07
2022-10-11T15:50:34.941Z,8.93
2022-10-11T15:55:28.892Z,8.65
2022-10-11T15:57:55.754Z,8.20
2022-10-11T16:00:22.552Z,8.35
2022-10-11T16:02:51.920Z,8.43
2022-10-11T16:05:33.512Z,8.02
2022-10-11T16:08:04.321Z,8.65
2022-10-11T16:10:30.875Z,8.07
2022-10-11T16:12:59.173Z,9.27
2022-10-11T16:15:29.317Z,7.40
2022-10-11T16:17:55.885Z,7.63
2022-10-11T16:20:25.850Z,7.22
2022-10-11T16:22:54.262Z,7.88
2022-10-11T16:25:22.200Z,7.85
2022-10-11T16:27:55.580Z,8.35
2022-10-11T16:30:22.268Z,7.45
2022-10-11T16:32:48.874Z,7.82
2022-10-11T16:35:18.416Z,8.63
2022-10-11T16:37:50.553Z,7.60
2022-10-11T16:40:21.436Z,7.50
2022-10-11T16:42:48.432Z,9.18
2022-10-11T16:45:16.018Z,7.85
2022-10-11T16:47:45.495Z,7.38
2022-10-11T16:50:12.771Z,7.55
2022-10-11T16:52:39.508Z,7.53
2022-10-11T16:55:06.686Z,8.23
2022-10-11T16:57:33.192Z,7.88
2022-10-11T16:59:59.714Z,7.40
2022-10-11T17:02:32.272Z,7.32
2022-10-11T17:05:02.650Z,6.90
2022-10-11T17:07:29.285Z,7.07
2022-10-11T17:09:56.281Z,6.43
2022-10-11T17:12:24.488Z,6.60
2022-10-11T17:14:51.570Z,6.35
2022-10-11T17:17:22.170Z,7.00
2022-10-11T17:19:48.947Z,6.53
2022-10-11T17:22:18.722Z,6.05
2022-10-11T17:24:46.045Z,7.32
2022-10-11T17:27:13.579Z,6.20
2022-10-11T17:29:40.656Z,7.00
2022-10-11T17:32:07.376Z,7.15
2022-10-11T17:34:34.389Z,6.53
2022-10-11T17:37:00.874Z,7.82
2022-10-11T17:39:34.040Z,8.32
2022-10-11T17:42:05.041Z,7.90
2022-10-11T17:44:37.391Z,7.82
2022-10-11T17:47:04.289Z,7.30
2022-10-11T17:49:30.848Z,6.68
2022-10-11T17:51:59.819Z,7.63
2022-10-11T17:54:26.537Z,7.15
2022-10-11T17:56:54.520Z,6.20
2022-10-11T17:59:23.591Z,6.40
2022-10-11T18:04:42.028Z,5.70
2022-10-11T18:07:08.535Z,5.97
2022-10-11T18:09:35.092Z,6.38
2022-10-11T18:12:02.000Z,5.82
2022-10-11T18:14:28.526Z,7.22
2022-10-11T18:16:55.216Z,12.40
2022-10-11T18:19:21.856Z,6.53
2022-10-11T18:21:48.346Z,7.90
2022-10-11T18:24:16.564Z,7.05
2022-10-11T18:26:45.080Z,8.13
2022-10-11T18:29:13.775Z,7.32
2022-10-11T18:31:41.157Z,6.95
2022-10-11T18:34:10.963Z,6.22
2022-10-11T18:36:37.952Z,5.75
2022-10-11T18:39:07.306Z,6.47
2022-10-11T18:41:45.768Z,6.03
2022-10-11T18:44:15.613Z,5.80
2022-10-11T18:46:42.721Z,6.28
2022-10-11T18:49:09.336Z,5.72
2022-10-11T18:51:39.589Z,6.28
2022-10-11T18:54:08.086Z,5.60
2022-10-11T18:56:38.742Z,5.97
2022-10-11T18:59:07.745Z,5.93
2022-10-11T19:01:38.334Z,5.50
2022-10-11T19:04:06.884Z,5.93
2022-10-11T19:06:43.018Z,6.25
2022-10-11T19:09:23.567Z,6.22
2022-10-11T19:11:53.828Z,5.85
2022-10-11T19:14:22.596Z,5.93
2022-10-11T19:16:51.692Z,7.30
2022-10-11T19:19:23.967Z,6.28
2022-10-11T19:21:50.751Z,6.28
2022-10-11T19:24:19.393Z,6.93
2022-10-11T19:26:46.992Z,5.70
2022-10-11T19:29:18.700Z,6.60
2022-10-11T19:31:54.131Z,6.10
2022-10-11T19:34:22.282Z,6.63
2022-10-11T19:36:53.404Z,6.60
2022-10-11T19:39:23.373Z,6.00
2022-10-11T19:41:53.885Z,6.13
2022-10-11T19:44:20.616Z,6.65
2022-10-11T19:46:51.971Z,5.35
2022-10-11T19:49:22.478Z,6.47
2022-10-11T19:51:49.159Z,6.90
2022-10-11T19:54:19.942Z,5.93
2022-10-11T19:56:46.803Z,5.45
2022-10-11T19:59:14.745Z,7.18
2022-10-11T20:01:42.079Z,5.85
2022-10-11T20:04:22.930Z,5.93
2022-10-11T20:07:00.120Z,5.60
2022-10-11T20:09:30.782Z,5.82
2022-10-11T20:11:57.931Z,6.47
2022-10-11T20:14:24.820Z,12.45
2022-10-11T20:16:51.542Z,7.03
2022-10-11T20:19:18.608Z,5.65
2022-10-11T20:21:45.597Z,5.07
2022-10-11T20:24:15.599Z,4.57
2022-10-11T20:26:42.082Z,4.47
2022-10-11T20:29:08.705Z,5.00
2022-10-11T20:31:38.849Z,4.72
2022-10-11T20:34:07.506Z,4.90
2022-10-11T20:36:40.212Z,4.85
2022-10-11T20:39:06.797Z,4.68
2022-10-11T20:41:44.534Z,6.20
2022-10-11T20:44:13.145Z,5.00
2022-10-11T20:46:40.036Z,5.30
2022-10-11T20:49:09.091Z,6.72
2022-10-11T20:51:37.700Z,5.93
2022-10-11T20:54:04.812Z,6.35
2022-10-11T20:56:34.320Z,5.95
2022-10-11T20:59:05.204Z,5.75
2022-10-11T21:01:38.005Z,5.63
2022-10-11T21:04:06.625Z,4.70
2022-10-11T21:06:33.753Z,5.80
2022-10-11T21:09:03.282Z,5.30
2022-10-11T21:11:33.534Z,4.88
2022-10-11T21:14:02.532Z,5.05
2022-10-11T21:16:29.711Z,4.50
2022-10-11T21:18:57.988Z,5.70
2022-10-11T21:21:25.274Z,5.30
2022-10-11T21:24:06.500Z,5.10
2022-10-11T21:26:35.204Z,5.47
2022-10-11T21:29:04.216Z,5.10
2022-10-11T21:31:34.532Z,5.40
2022-10-11T21:34:02.294Z,4.68
2022-10-11T21:36:28.914Z,4.70
2022-10-11T21:38:56.288Z,4.80
2022-10-11T21:41:25.887Z,4.70
2022-10-11T21:43:52.716Z,5.00
2022-10-11T21:46:32.577Z,5.25
2022-10-11T21:49:08.639Z,5.18
2022-10-11T21:51:37.470Z,5.25
2022-10-11T21:54:07.698Z,5.22
2022-10-11T21:56:36.007Z,5.38
2022-10-11T21:59:05.460Z,6.07
2022-10-11T22:01:36.752Z,5.03
2022-10-11T22:04:12.083Z,6.00
2022-10-11T22:06:38.865Z,5.32
2022-10-11T22:09:07.162Z,6.03
2022-10-11T22:11:36.284Z,6.47
2022-10-11T22:14:03.544Z,7.03
2022-10-11T22:16:30.061Z,6.40
2022-10-11T22:18:56.702Z,5.45
2022-10-11T22:21:23.793Z,5.45
2022-10-11T22:23:52.098Z,5.82
2022-10-11T22:26:26.478Z,4.97
2022-10-11T22:28:53.508Z,5.63
2022-10-11T22:31:21.442Z,5.85
2022-10-11T22:33:50.578Z,6.22
2022-10-11T22:36:18.945Z,6.13
2022-10-11T22:38:45.572Z,5.07
2022-10-11T22:41:17.075Z,5.50
2022-10-11T22:43:43.717Z,6.80
2022-10-11T22:46:10.428Z,6.40
2022-10-11T22:48:38.750Z,6.28
2022-10-11T22:51:05.455Z,7.22
2022-10-11T22:53:32.002Z,5.95
2022-10-11T22:55:59.021Z,5.70
2022-10-11T22:58:25.891Z,5.70
2022-10-11T23:00:52.760Z,5.72
2022-10-11T23:03:21.509Z,5.53
2022-10-11T23:05:58.790Z,5.68
2022-10-11T23:08:27.415Z,5.68
2022-10-11T23:10:54.009Z,6.07
2022-10-11T23:13:20.597Z,5.57
2022-10-11T23:15:47.244Z,6.00
2022-10-11T23:18:16.311Z,6.22
2022-10-11T23:20:42.778Z,5.18
2022-10-11T23:23:09.470Z,4.80
2022-10-11T23:25:35.943Z,4.95
2022-10-11T23:28:02.447Z,5.78
2022-10-11T23:30:31.521Z,5.28
2022-10-11T23:32:59.770Z,5.47
2022-10-11T23:35:26.312Z,5.60
2022-10-11T23:37:56.574Z,5.45
2022-10-11T23:40:23.159Z,6.25
2022-10-11T23:42:49.639Z,5.65
2022-10-11T23:45:20.679Z,5.95
2022-10-11T23:47:47.157Z,6.55
2022-10-11T23:50:13.647Z,6.50
2022-10-11T23:52:42.403Z,5.75
2022-10-11T23:55:11.007Z,7.10
2022-10-11T23:57:37.808Z,5.68
